»·PEaware :: DAL732 KSFO-KBOI

DAL732 :: KSFO-KBOI

FLIGHT INFORMATION

Flight Status: Arrived
Operator:
Delta Air Lines
More flights by this operator :: More flights under this callsign
Pilot: Anonymous 17611 (17611)
Aircraft: MCDONNELL-DOUGLAS MD-88
(MD88)
More flights by this aircraft type
Origin: KSFO San Francisco Intl
United States
Destination: KBOI Boise Air Terminal/Gowen
United States
More flights between these airports :: More routes between these airports
Route: +TRUKN2 ORRCA FMG PRNCS SADYL3
File this flight plan on PilotEdge
Remarks:
Altitude:
(Current/Filed)
32,000ft
Speed:
(Current/Filed)
440kts
Departed: 30-Apr-18 04:55 PM
Arrived: 30-Apr-18 06:11 PM
Distance/Time
Traveled:
453nm/1:16
Distance/Time
To Go:
Arrived

Flight Plot

Page will automatically refresh every two minutes.

Flight plan parsing failed; only flown route is shown


Map Options




Map Legend


Flown Route
Filed Route
Departure Airport
Arrival Airport
Navaid (VOR, NDB)
Fix

Horizontal Profiles

Position Reports

Time Latitude Longitude Heading Altitude Ground
Speed
30-Apr-18 16:07 37.611635 -122.386013 34 30ft 0kts
30-Apr-18 16:08 37.611635 -122.386013 34 30ft 0kts
30-Apr-18 16:09 37.611635 -122.386013 34 30ft 0kts
30-Apr-18 16:11 37.611635 -122.386013 34 30ft 0kts
30-Apr-18 16:11 37.611635 -122.386013 34 30ft 0kts
30-Apr-18 16:12 37.611635 -122.386013 34 30ft 0kts
30-Apr-18 16:13 37.611635 -122.386013 34 30ft 0kts
30-Apr-18 16:14 37.611635 -122.386013 34 30ft 0kts
30-Apr-18 16:15 37.611635 -122.386013 34 30ft 0kts
30-Apr-18 16:16 37.611635 -122.386013 34 30ft 0kts
30-Apr-18 16:17 37.611635 -122.386013 34 30ft 0kts
30-Apr-18 16:18 37.611635 -122.386013 34 30ft 0kts
30-Apr-18 16:19 37.611635 -122.386013 34 30ft 0kts
30-Apr-18 16:20 37.611635 -122.386013 34 30ft 0kts
30-Apr-18 16:21 37.611635 -122.386013 34 30ft 0kts
30-Apr-18 16:22 37.611635 -122.386013 34 30ft 0kts
30-Apr-18 16:23 37.611635 -122.386013 34 30ft 0kts
30-Apr-18 16:24 37.611635 -122.386013 34 30ft 0kts
30-Apr-18 16:25 37.611635 -122.386013 34 30ft 0kts
30-Apr-18 16:26 37.611635 -122.386013 34 30ft 0kts
30-Apr-18 16:27 37.611635 -122.386013 34 30ft 0kts
30-Apr-18 16:28 37.611635 -122.386013 34 30ft 0kts
30-Apr-18 16:29 37.611635 -122.386013 34 30ft 0kts
30-Apr-18 16:30 37.611635 -122.386013 34 30ft 0kts
30-Apr-18 16:31 37.611635 -122.386013 34 29ft 0kts
30-Apr-18 16:32 37.611635 -122.386013 34 29ft 0kts
30-Apr-18 16:33 37.611635 -122.386013 34 29ft 0kts
30-Apr-18 16:34 37.611635 -122.386013 34 29ft 0kts
30-Apr-18 16:39 37.611635 -122.386013 34 30ft 0kts
30-Apr-18 16:40 37.611635 -122.386013 34 30ft 0kts
30-Apr-18 16:41 37.611635 -122.386013 34 30ft 0kts
30-Apr-18 16:42 37.611635 -122.386013 34 30ft 0kts
30-Apr-18 16:43 37.611635 -122.386013 34 30ft 0kts
30-Apr-18 16:44 37.611635 -122.386013 34 29ft 0kts
30-Apr-18 16:45 37.611635 -122.386013 34 29ft 0kts
30-Apr-18 16:46 37.611635 -122.386013 34 29ft 0kts
30-Apr-18 16:47 37.611635 -122.386013 34 29ft 0kts
30-Apr-18 16:48 37.611635 -122.386013 34 29ft 0kts
30-Apr-18 16:49 37.611635 -122.386013 34 29ft 0kts
30-Apr-18 16:50 37.611281 -122.386403 104 29ft 0kts
30-Apr-18 16:51 37.611280 -122.386403 104 29ft 0kts
30-Apr-18 16:52 37.610289 -122.384229 148 29ft 17kts
30-Apr-18 16:53 37.609035 -122.383532 149 29ft 0kts
30-Apr-18 16:54 37.611828 -122.380339 27 29ft 69kts
30-Apr-18 16:55 37.649333 -122.352723 40 1460ft 204kts
30-Apr-18 16:56 37.682070 -122.287335 57 2594ft 264kts
30-Apr-18 16:57 37.722239 -122.208941 43 5349ft 276kts
30-Apr-18 16:58 37.783488 -122.154276 33 8572ft 282kts
30-Apr-18 16:59 37.850061 -122.094739 34 10834ft 321kts
30-Apr-18 17:00 37.920540 -122.030782 34 13092ft 343kts
30-Apr-18 17:01 37.998461 -121.959357 33 15511ft 354kts
30-Apr-18 17:02 38.079173 -121.885359 33 17664ft 365kts
30-Apr-18 17:03 38.160781 -121.810567 32 19554ft 375kts
30-Apr-18 17:04 38.246026 -121.732486 31 21272ft 385kts
30-Apr-18 17:05 38.333366 -121.652534 31 22797ft 394kts
30-Apr-18 17:06 38.421877 -121.571428 32 24161ft 404kts
30-Apr-18 17:07 38.496525 -121.462358 49 25363ft 424kts
30-Apr-18 17:08 38.564314 -121.342169 49 26430ft 433kts
30-Apr-18 17:09 38.634072 -121.219110 48 27363ft 441kts
30-Apr-18 17:10 38.700324 -121.102570 49 27785ft 458kts
30-Apr-18 17:11 38.759487 -120.998595 51 28220ft 470kts
30-Apr-18 17:12 38.823113 -120.886820 51 28861ft 475kts
30-Apr-18 17:13 38.893961 -120.762649 51 29600ft 478kts
30-Apr-18 17:14 38.964781 -120.638791 50 30874ft 465kts
30-Apr-18 17:15 39.030813 -120.523568 51 31059ft 449kts
30-Apr-18 17:16 39.094783 -120.412047 51 31056ft 449kts
30-Apr-18 17:17 39.157875 -120.302266 51 31034ft 450kts
30-Apr-18 17:18 39.222507 -120.189979 51 31013ft 448kts
30-Apr-18 17:19 39.288929 -120.074778 51 31008ft 447kts
30-Apr-18 17:20 39.352835 -119.964133 51 31009ft 447kts
30-Apr-18 17:21 39.417129 -119.852986 50 31009ft 447kts
30-Apr-18 17:22 39.483473 -119.738491 50 31009ft 447kts
30-Apr-18 17:23 39.551493 -119.625271 38 30985ft 444kts
30-Apr-18 17:24 39.650898 -119.566018 21 31013ft 439kts
30-Apr-18 17:25 39.752216 -119.504239 23 31010ft 439kts
30-Apr-18 17:26 39.846657 -119.444868 23 31010ft 439kts
30-Apr-18 17:27 39.937479 -119.387659 23 31009ft 439kts
30-Apr-18 17:28 40.027066 -119.331226 23 31006ft 439kts
30-Apr-18 17:29 40.129801 -119.266525 23 31009ft 439kts
30-Apr-18 17:30 40.238083 -119.198347 23 31009ft 439kts
30-Apr-18 17:31 40.347194 -119.129671 23 31009ft 439kts
30-Apr-18 17:32 40.452316 -119.063521 23 31009ft 439kts
30-Apr-18 17:33 40.559315 -118.996200 23 31009ft 439kts
30-Apr-18 17:34 40.668695 -118.927412 22 31009ft 440kts
30-Apr-18 17:35 40.776026 -118.859927 22 31009ft 442kts
30-Apr-18 17:36 40.886745 -118.790341 21 31009ft 444kts
30-Apr-18 17:37 40.998289 -118.720253 21 31015ft 447kts
30-Apr-18 17:38 41.106925 -118.652002 21 31014ft 453kts
30-Apr-18 17:39 41.220344 -118.580794 21 30994ft 455kts
30-Apr-18 17:40 41.334502 -118.509129 21 30993ft 456kts
30-Apr-18 17:41 41.449230 -118.437139 21 30994ft 457kts
30-Apr-18 17:42 41.563741 -118.365304 21 30993ft 457kts
30-Apr-18 17:43 41.674757 -118.295690 21 30985ft 455kts
30-Apr-18 17:44 41.789093 -118.224018 21 30979ft 455kts
30-Apr-18 17:45 41.903706 -118.152198 21 30979ft 455kts
30-Apr-18 17:46 42.018428 -118.080336 21 30979ft 455kts
30-Apr-18 17:47 42.132042 -118.009192 21 30984ft 455kts
30-Apr-18 17:48 42.246510 -117.937542 21 30982ft 455kts
30-Apr-18 17:49 42.361405 -117.865653 21 30983ft 455kts
30-Apr-18 17:50 42.468786 -117.776464 43 30986ft 466kts
30-Apr-18 17:51 42.550038 -117.637760 47 29817ft 470kts
30-Apr-18 17:52 42.630142 -117.503869 47 27658ft 447kts
30-Apr-18 17:53 42.706910 -117.376080 47 25609ft 427kts
30-Apr-18 17:54 42.779445 -117.255563 47 23746ft 407kts
30-Apr-18 17:55 42.847169 -117.140419 48 21767ft 396kts
30-Apr-18 17:56 42.914320 -117.025586 49 19733ft 385kts
30-Apr-18 17:58 42.979504 -116.914252 49 17762ft 373kts
30-Apr-18 17:59 43.043162 -116.805699 48 15930ft 358kts
30-Apr-18 18:00 43.101602 -116.706699 48 14544ft 337kts
30-Apr-18 18:01 43.154812 -116.616434 48 13286ft 320kts
30-Apr-18 18:02 43.210201 -116.525612 45 11886ft 307kts
30-Apr-18 18:03 43.266132 -116.437407 46 10177ft 306kts
30-Apr-18 18:04 43.321578 -116.349739 47 8449ft 300kts
30-Apr-18 18:05 43.370018 -116.268552 54 7443ft 247kts
30-Apr-18 18:06 43.405350 -116.193446 54 6551ft 228kts
30-Apr-18 18:07 43.442397 -116.126946 17 5259ft 217kts
30-Apr-18 18:08 43.494265 -116.111390 10 4641ft 175kts
30-Apr-18 18:09 43.533082 -116.135399 311 4072ft 163kts
30-Apr-18 18:10 43.553553 -116.188099 299 3104ft 138kts
30-Apr-18 18:11 43.566128 -116.223654 357 2847ft 23kts

Navigation Log

Ident Type
Flight plan parsing failed, navigation log unavailable